Flight Track Log - Related Links

Times and Time Zones

All times are in EDT time to prevent confusion due to time zone crossing. See the UAL5814 flight status page for this flight to view local times or setup timezone preferences in your user account.

Time Position Orientation Groundspeed Altitude Reporting Facility
EDT Latitude Longitude Course Direction KTS MPH feet Rate Location/Type
Fri 06:08:21 AM 42.7797 -84.7250 281° West 220 253 4,500  Level Cleveland Center
Fri 06:09:25 AM 42.7806 -84.8089 271° West 225 259 6,900 2,064 Climbing Chicago Center
Fri 06:10:00 AM 42.7667 -84.8795 270° West  Level FlightAware Approximate
Fri 06:10:26 AM 42.7817 -84.9042 271° West 245 282 8,800  Level Chicago Center
Fri 06:11:00 AM 42.7667 -84.9536 270° West  Level FlightAware Approximate
Fri 06:11:26 AM 42.7828 -85.0081 271° West 268 308 10,500  Level Chicago Center
Fri 06:12:00 AM 42.7705 -85.0271 281° West  Level FlightAware Approximate
Fri 06:12:27 AM 42.7717 -85.1247 263° West 308 354 11,600  Level Chicago Center
Fri 06:13:00 AM 42.7802 -85.0944 281° West  Level FlightAware Approximate
Fri 06:13:27 AM 42.7531 -85.2453 258° West 325 374 13,100  Level Chicago Center
Fri 06:14:28 AM 42.7325 -85.3683 257° West 331 381 14,600 1,388 Climbing Chicago Center
Fri 06:15:28 AM 42.7125 -85.4919 258° West 334 384 15,900 694 Climbing Chicago Center
Fri 06:16:29 AM 42.6911 -85.6239 258° West 350 403 16,000 50 Climbing Chicago Center
Fri 06:17:29 AM 42.6681 -85.7600 257° West 363 418 16,000  Level Chicago Center
Fri 06:18:30 AM 42.6456 -85.8953 257° West 365 420 16,000  Level Chicago Center
Fri 06:19:30 AM 42.6225 -86.0317 257° West 367 422 16,000  Level Chicago Center
Fri 06:20:31 AM 42.6006 -86.1692 258° West 370 426 16,000  Level Chicago Center
Fri 06:21:31 AM 42.5769 -86.3067 257° West 372 428 16,000  Level Chicago Center
Fri 06:22:32 AM 42.5519 -86.4431 256° West 373 429 16,000  Level Chicago Center
Fri 06:23:32 AM 42.5289 -86.5822 257° West 378 435 16,000 -99 Level Chicago Center
Fri 06:24:33 AM 42.5053 -86.7183 257° West 373 429 15,800 -1,041 Descending Chicago Center
Fri 06:25:33 AM 42.4831 -86.8503 257° West 362 417 13,900 -1,289 Descending Chicago Center
Fri 06:26:34 AM 42.4631 -86.9678 257° West 319 367 13,200 -1,180 Descending Chicago Center
Fri 06:27:35 AM 42.4433 -87.0667 255° West 277 319 11,500 -1,339 Descending Chicago Center
Fri 06:28:35 AM 42.4258 -87.1675 257° West 275 316 10,500 -992 Descending Chicago Center
Fri 06:29:36 AM 42.4075 -87.2650 256° West 270 311 9,500 -992 Descending Chicago Center
Fri 06:30:36 AM 42.3878 -87.3608 254° West 266 306 8,500 -1,041 Descending Chicago Center
Fri 06:31:37 AM 42.3569 -87.4667 249° West 268 308 7,400 -738 Descending Chicago Center
Fri 06:32:38 AM 42.3283 -87.5481 245° Southwest 247 284 7,000 -198 Descending Chicago Center
Fri 06:33:38 AM 42.2747 -87.5625 191° South 211 243 7,000 -446 Level Chicago Center
Fri 06:34:39 AM 42.2203 -87.5514 171° South 199 229 6,100 -496 Descending Chicago Center
Fri 06:35:39 AM 42.1664 -87.5433 174° South 195 224 6,000 -50 Descending Chicago Center
Fri 06:36:40 AM 42.1239 -87.4992 142° Southeast 208 239 6,000  Level Chicago Center
Fri 06:37:18 AM 42.1000 -87.4500 123° Southeast 211 243 6,000 -519 Level Chicago TRACON
Fri 06:38:24 AM 42.0500 -87.4000 143° Southeast 206 237 5,100 -714 Descending Chicago TRACON
Fri 06:39:24 AM 42.0000 -87.4000 180° South 194 223 4,500 -550 Descending Chicago TRACON
Fri 06:40:24 AM 41.9667 -87.4333 217° Southwest 173 199 4,000 -238 Descending Chicago TRACON
Fri 06:41:30 AM 41.9667 -87.5167 270° West 173 199 4,000  Level Chicago TRACON
Fri 06:42:24 AM 41.9667 -87.5667 270° West 173 199 4,000  Level Chicago TRACON
Fri 06:43:24 AM 41.9667 -87.6333 270° West 173 199 4,000 -209 Level Chicago TRACON
Fri 06:44:19 AM 41.9667 -87.6833 270° West 175 201 3,600 -730 Descending Chicago TRACON
Fri 06:45:19 AM 41.9667 -87.7500 270° West 169 194 2,600 -1,000 Descending Chicago TRACON

Login

Don't have an account? Register now (free) for customized features, flight alerts, and more!